createdAt,value
2017-12-17T00:01:20.346Z,77.56
2017-12-17T00:03:54.852Z,77.37
2017-12-17T00:06:28.893Z,77.06
2017-12-17T00:09:03.036Z,76.87
2017-12-17T00:11:37.295Z,76.80
2017-12-17T00:14:11.766Z,76.64
2017-12-17T00:16:45.932Z,76.35
2017-12-17T00:19:20.114Z,75.86
2017-12-17T00:21:54.166Z,75.82
2017-12-17T00:24:28.206Z,75.86
2017-12-17T00:27:02.589Z,75.51
2017-12-17T00:29:36.790Z,75.68
2017-12-17T00:32:10.902Z,75.66
2017-12-17T00:34:45.458Z,75.61
2017-12-17T00:37:20.014Z,75.48
2017-12-17T00:39:54.490Z,75.49
2017-12-17T00:42:28.881Z,75.44
2017-12-17T00:45:03.422Z,75.29
2017-12-17T00:47:37.767Z,75.51
2017-12-17T00:50:12.159Z,75.69
2017-12-17T00:52:46.605Z,75.77
2017-12-17T00:55:34.023Z,75.71
2017-12-17T00:58:08.196Z,75.51
2017-12-17T01:00:42.931Z,75.29
2017-12-17T01:03:17.510Z,75.38
2017-12-17T01:05:51.866Z,75.73
2017-12-17T01:08:26.524Z,75.88
2017-12-17T01:11:00.959Z,75.93
2017-12-17T01:13:35.467Z,75.89
2017-12-17T01:16:10.805Z,76.07
2017-12-17T01:18:45.214Z,76.15
2017-12-17T01:21:19.601Z,76.22
2017-12-17T01:23:54.212Z,76.30
2017-12-17T01:26:28.834Z,76.29
2017-12-17T01:29:03.286Z,76.38
2017-12-17T01:31:37.662Z,76.38
2017-12-17T01:34:12.418Z,76.60
2017-12-17T01:36:46.966Z,76.66
2017-12-17T01:39:21.321Z,76.79
2017-12-17T01:41:55.820Z,77.16
2017-12-17T01:44:30.398Z,77.31
2017-12-17T01:47:04.759Z,77.44
2017-12-17T01:49:38.918Z,77.64
2017-12-17T01:52:13.025Z,77.74
2017-12-17T01:54:47.202Z,77.98
2017-12-17T01:57:21.375Z,78.25
2017-12-17T01:59:55.550Z,78.35
2017-12-17T02:02:29.902Z,78.59
2017-12-17T02:05:09.828Z,78.73
2017-12-17T02:07:43.995Z,78.82
2017-12-17T02:10:18.104Z,78.96
2017-12-17T02:12:52.246Z,79.02
2017-12-17T02:15:26.377Z,79.03
2017-12-17T02:18:00.845Z,78.97
2017-12-17T02:20:35.024Z,78.94
2017-12-17T02:23:09.229Z,78.89
2017-12-17T02:25:43.418Z,78.87
2017-12-17T02:28:17.626Z,78.88
2017-12-17T02:30:51.662Z,78.62
2017-12-17T02:33:25.736Z,78.59
2017-12-17T02:36:00.232Z,78.31
2017-12-17T02:38:34.287Z,78.17
2017-12-17T02:41:08.506Z,78.03
2017-12-17T02:43:42.887Z,77.74
2017-12-17T02:46:16.979Z,77.56
2017-12-17T02:48:51.266Z,77.56
2017-12-17T02:51:25.536Z,77.58
2017-12-17T02:53:59.658Z,77.45
2017-12-17T02:56:33.868Z,77.52
2017-12-17T02:59:08.146Z,77.48
2017-12-17T03:01:42.278Z,77.31
2017-12-17T03:04:17.010Z,77.47
2017-12-17T03:06:51.174Z,77.56
2017-12-17T03:09:25.406Z,77.39
2017-12-17T03:11:59.758Z,77.63
2017-12-17T03:14:33.956Z,77.53
2017-12-17T03:17:08.239Z,77.60
2017-12-17T03:19:42.298Z,77.46
2017-12-17T03:22:16.370Z,77.44
2017-12-17T03:24:50.429Z,77.55
2017-12-17T03:27:25.335Z,77.32
2017-12-17T03:30:00.264Z,77.33
2017-12-17T03:32:34.336Z,77.17
2017-12-17T03:35:15.105Z,77.17
2017-12-17T03:37:49.134Z,76.89
2017-12-17T03:40:23.298Z,76.82
2017-12-17T03:42:57.378Z,76.96
2017-12-17T03:45:31.582Z,76.85
2017-12-17T03:48:05.638Z,76.68
2017-12-17T03:50:39.762Z,76.51
2017-12-17T03:53:13.986Z,76.51
2017-12-17T03:55:48.599Z,76.28
2017-12-17T03:58:22.917Z,76.27
2017-12-17T04:00:57.868Z,76.18
2017-12-17T04:03:32.207Z,76.03
2017-12-17T04:06:06.233Z,75.98
2017-12-17T04:08:40.466Z,75.90
2017-12-17T04:11:14.606Z,75.36
2017-12-17T04:13:48.755Z,75.18
2017-12-17T04:16:22.871Z,75.01
2017-12-17T04:18:57.008Z,74.69
2017-12-17T04:21:31.113Z,74.67
2017-12-17T04:24:05.522Z,74.01
2017-12-17T04:26:39.589Z,73.95
2017-12-17T04:29:13.606Z,73.93
2017-12-17T04:31:47.759Z,74.21
2017-12-17T04:34:22.331Z,74.09
2017-12-17T04:36:56.399Z,74.02
2017-12-17T04:39:30.559Z,73.81
2017-12-17T04:42:04.682Z,73.94
2017-12-17T04:44:39.231Z,73.61
2017-12-17T04:47:13.326Z,73.77
2017-12-17T04:49:47.505Z,73.77
2017-12-17T04:52:21.543Z,73.94
2017-12-17T04:54:55.696Z,73.87
2017-12-17T04:57:29.780Z,74.03
2017-12-17T05:00:06.893Z,74.20
2017-12-17T05:02:41.180Z,74.40
2017-12-17T05:05:16.206Z,74.41
2017-12-17T05:07:51.496Z,74.70
2017-12-17T05:10:25.654Z,74.96
2017-12-17T05:13:00.382Z,75.06
2017-12-17T05:15:34.611Z,75.28
2017-12-17T05:18:08.892Z,75.06
2017-12-17T05:20:42.943Z,75.10
2017-12-17T05:23:17.112Z,75.11
2017-12-17T05:25:51.214Z,75.20
2017-12-17T05:28:25.322Z,75.39
2017-12-17T05:30:59.429Z,75.40
2017-12-17T05:33:34.213Z,75.59
2017-12-17T05:36:08.382Z,75.82
2017-12-17T05:38:42.571Z,75.91
2017-12-17T05:41:17.123Z,76.00
2017-12-17T05:43:51.693Z,75.90
2017-12-17T05:46:25.790Z,75.71
2017-12-17T05:49:00.193Z,75.67
2017-12-17T05:51:34.726Z,75.74
2017-12-17T05:54:08.894Z,75.66
2017-12-17T05:56:43.086Z,75.67
2017-12-17T05:59:17.362Z,75.46
2017-12-17T06:01:51.578Z,75.44
2017-12-17T06:04:25.827Z,75.47
2017-12-17T06:06:59.959Z,75.50
2017-12-17T06:09:39.949Z,75.56
2017-12-17T06:12:14.117Z,75.53
2017-12-17T06:14:49.085Z,75.67
2017-12-17T06:17:23.264Z,75.70
2017-12-17T06:19:57.630Z,75.78
2017-12-17T06:22:31.714Z,75.66
2017-12-17T06:25:15.176Z,75.70
2017-12-17T06:27:49.790Z,75.76
2017-12-17T06:30:24.071Z,75.56
2017-12-17T06:32:59.557Z,75.84
2017-12-17T06:35:33.638Z,75.97
2017-12-17T06:38:07.678Z,75.82
2017-12-17T06:40:41.750Z,75.75
2017-12-17T06:43:16.003Z,75.54
2017-12-17T06:45:50.115Z,75.68
2017-12-17T06:48:24.673Z,75.85
2017-12-17T06:50:59.110Z,76.11
2017-12-17T06:53:33.229Z,76.18
2017-12-17T06:56:08.107Z,76.30
2017-12-17T06:58:42.838Z,76.30
2017-12-17T07:01:19.682Z,76.31
2017-12-17T07:03:53.662Z,76.31
2017-12-17T07:06:27.714Z,76.09
2017-12-17T07:09:01.975Z,76.23
2017-12-17T07:11:36.065Z,75.95
2017-12-17T07:14:10.150Z,75.82
2017-12-17T07:16:44.190Z,75.50
2017-12-17T07:19:31.315Z,75.53
2017-12-17T07:22:06.697Z,75.14
2017-12-17T07:24:40.860Z,74.74
2017-12-17T07:27:15.445Z,74.68
2017-12-17T07:29:49.625Z,74.34
2017-12-17T07:32:23.818Z,73.73
2017-12-17T07:34:58.104Z,73.57
2017-12-17T07:37:32.157Z,72.88
2017-12-17T07:40:07.178Z,72.59
2017-12-17T07:42:41.391Z,72.11
2017-12-17T07:45:15.696Z,71.81
2017-12-17T07:47:50.114Z,71.72
2017-12-17T07:50:24.170Z,71.36
2017-12-17T07:52:58.408Z,70.86
2017-12-17T07:55:32.459Z,70.43
2017-12-17T07:58:06.981Z,70.39
2017-12-17T08:00:41.077Z,70.11
2017-12-17T08:03:15.490Z,69.77
2017-12-17T08:05:49.582Z,68.79
2017-12-17T08:08:24.094Z,68.92
2017-12-17T08:10:58.597Z,68.63
2017-12-17T08:13:32.644Z,68.36
2017-12-17T08:16:06.746Z,68.11
2017-12-17T08:18:40.914Z,68.03
2017-12-17T08:21:14.986Z,68.17
2017-12-17T08:23:49.346Z,67.89
2017-12-17T08:26:23.430Z,67.70
2017-12-17T08:28:57.894Z,67.69
2017-12-17T08:31:32.272Z,67.81
2017-12-17T08:34:06.423Z,67.78
2017-12-17T08:36:40.502Z,67.97
2017-12-17T08:39:15.015Z,68.06
2017-12-17T08:41:49.131Z,67.96
2017-12-17T08:44:23.656Z,68.02
2017-12-17T08:46:57.686Z,68.33
2017-12-17T08:49:31.844Z,68.41
2017-12-17T08:52:06.107Z,68.41
2017-12-17T08:54:40.215Z,68.26
2017-12-17T08:57:14.669Z,68.18
2017-12-17T08:59:49.423Z,68.29
2017-12-17T09:02:24.797Z,67.92
2017-12-17T09:04:58.822Z,67.32
2017-12-17T09:07:32.904Z,66.36
2017-12-17T09:10:06.987Z,66.31
2017-12-17T09:12:42.085Z,66.06
2017-12-17T09:15:16.190Z,65.91
2017-12-17T09:17:50.581Z,65.26
2017-12-17T09:20:24.818Z,64.72
2017-12-17T09:22:59.023Z,64.83
2017-12-17T09:25:33.058Z,65.07
2017-12-17T09:28:07.137Z,65.47
2017-12-17T09:30:41.251Z,65.43
2017-12-17T09:33:15.307Z,65.01
2017-12-17T09:35:49.425Z,65.02
2017-12-17T09:38:23.556Z,64.81
2017-12-17T09:40:57.990Z,65.14
2017-12-17T09:43:32.146Z,65.08
2017-12-17T09:46:06.320Z,65.11
2017-12-17T09:48:40.862Z,65.02
2017-12-17T09:51:15.013Z,65.25
2017-12-17T09:53:49.579Z,65.02
2017-12-17T09:56:24.034Z,65.36
2017-12-17T09:58:58.063Z,65.66
2017-12-17T10:01:32.068Z,64.98
2017-12-17T10:04:06.252Z,64.98
2017-12-17T10:06:40.298Z,65.38
2017-12-17T10:09:14.582Z,65.34
2017-12-17T10:11:48.616Z,65.57
2017-12-17T10:14:23.030Z,64.00
2017-12-17T10:16:57.326Z,65.00
2017-12-17T10:19:31.589Z,65.81
2017-12-17T10:22:06.050Z,66.44
2017-12-17T10:24:40.318Z,64.97
2017-12-17T10:27:14.361Z,63.16
2017-12-17T10:29:48.391Z,62.90
2017-12-17T10:32:22.429Z,62.85
2017-12-17T10:34:56.878Z,64.51
2017-12-17T10:37:31.349Z,65.50
2017-12-17T10:40:10.606Z,65.37
2017-12-17T10:42:44.682Z,65.72
2017-12-17T10:45:18.752Z,65.82
2017-12-17T10:47:52.953Z,65.99
2017-12-17T10:50:27.494Z,66.41
2017-12-17T10:53:01.898Z,66.26
2017-12-17T10:55:36.015Z,66.62
2017-12-17T10:58:10.056Z,65.39
2017-12-17T11:00:44.152Z,64.57
2017-12-17T11:03:18.810Z,65.05
2017-12-17T11:05:53.170Z,65.15
2017-12-17T11:08:27.538Z,65.09
2017-12-17T11:11:01.699Z,64.53
2017-12-17T11:13:36.548Z,64.43
2017-12-17T11:16:10.726Z,65.06
2017-12-17T11:18:44.937Z,65.24
2017-12-17T11:21:19.332Z,65.11
2017-12-17T11:23:53.780Z,65.06
2017-12-17T11:26:28.257Z,64.44
2017-12-17T11:29:02.455Z,64.32
2017-12-17T11:31:36.470Z,64.59
2017-12-17T11:34:11.462Z,64.08
2017-12-17T11:36:45.599Z,64.39
2017-12-17T11:39:19.777Z,64.07
2017-12-17T11:41:54.314Z,64.46
2017-12-17T11:44:29.213Z,64.41
2017-12-17T11:47:03.833Z,63.81
2017-12-17T11:49:42.654Z,63.36
2017-12-17T11:52:16.930Z,63.65
2017-12-17T11:54:51.076Z,63.91
2017-12-17T11:57:25.331Z,64.63
2017-12-17T11:59:59.581Z,65.79
2017-12-17T12:02:33.742Z,65.33
2017-12-17T12:05:08.333Z,65.84
2017-12-17T12:07:42.570Z,66.07
2017-12-17T12:10:16.611Z,66.14
2017-12-17T12:12:51.170Z,65.81
2017-12-17T12:15:25.783Z,66.16
2017-12-17T12:17:59.974Z,65.61
2017-12-17T12:20:34.028Z,65.53
2017-12-17T12:23:08.085Z,64.64
2017-12-17T12:25:42.433Z,64.82
2017-12-17T12:28:16.622Z,64.81
2017-12-17T12:30:51.482Z,64.77
2017-12-17T12:33:25.650Z,65.06
2017-12-17T12:35:59.860Z,64.68
2017-12-17T12:38:33.909Z,64.54
2017-12-17T12:41:07.934Z,64.99
2017-12-17T12:43:42.110Z,64.25
2017-12-17T12:46:16.170Z,64.37
2017-12-17T12:48:50.566Z,64.13
2017-12-17T12:51:24.850Z,63.29
2017-12-17T12:53:58.990Z,62.54
2017-12-17T12:56:33.054Z,63.05
2017-12-17T12:59:07.285Z,62.10
2017-12-17T13:01:41.386Z,62.18
2017-12-17T13:04:15.418Z,62.21
2017-12-17T13:06:49.816Z,62.39
2017-12-17T13:09:23.994Z,61.34
2017-12-17T13:11:58.462Z,60.78
2017-12-17T13:14:32.954Z,60.56
2017-12-17T13:17:07.254Z,61.08
2017-12-17T13:19:41.596Z,61.27
2017-12-17T13:22:16.648Z,61.79
2017-12-17T13:24:51.183Z,62.39
2017-12-17T13:27:25.550Z,62.60
2017-12-17T13:30:01.214Z,65.01
2017-12-17T13:32:35.370Z,70.23
2017-12-17T13:35:09.511Z,72.61
2017-12-17T13:37:43.555Z,73.47
2017-12-17T13:40:17.961Z,75.37
2017-12-17T13:42:52.158Z,76.51
2017-12-17T13:45:27.943Z,77.47
2017-12-17T13:48:02.535Z,77.19
2017-12-17T13:50:36.814Z,76.66
2017-12-17T13:53:10.867Z,76.73
2017-12-17T13:55:44.905Z,75.12
2017-12-17T13:58:19.448Z,75.42
2017-12-17T14:00:54.555Z,75.07
2017-12-17T14:03:28.759Z,74.27
2017-12-17T14:06:02.933Z,74.46
2017-12-17T14:08:37.963Z,73.91
2017-12-17T14:11:12.891Z,74.25
2017-12-17T14:13:47.405Z,74.56
2017-12-17T14:16:21.709Z,74.93
2017-12-17T14:18:56.245Z,75.37
2017-12-17T14:21:30.621Z,75.29
2017-12-17T14:24:04.672Z,75.19
2017-12-17T14:26:39.030Z,75.16
2017-12-17T14:29:13.186Z,75.22
2017-12-17T14:31:47.208Z,75.39
2017-12-17T14:34:21.481Z,74.94
2017-12-17T14:36:55.522Z,75.27
2017-12-17T14:39:29.702Z,74.96
2017-12-17T14:42:03.738Z,75.15
2017-12-17T14:44:37.994Z,75.35
2017-12-17T14:47:12.200Z,75.75
2017-12-17T14:49:46.318Z,76.24
2017-12-17T14:52:20.483Z,76.44
2017-12-17T14:54:54.506Z,77.38
2017-12-17T14:57:28.580Z,77.95
2017-12-17T15:02:42.349Z,78.03
2017-12-17T15:05:16.622Z,78.08
2017-12-17T15:07:50.450Z,77.90
2017-12-17T15:10:24.622Z,77.99
2017-12-17T15:12:59.204Z,77.97
2017-12-17T15:15:37.808Z,77.98
2017-12-17T15:18:12.019Z,77.78
2017-12-17T15:20:46.134Z,77.46
2017-12-17T15:23:20.451Z,77.40
2017-12-17T15:25:55.950Z,77.47
2017-12-17T15:28:30.530Z,77.65
2017-12-17T15:31:04.754Z,77.81
2017-12-17T15:33:38.871Z,77.94
2017-12-17T15:36:13.795Z,77.89
2017-12-17T15:38:48.058Z,78.11
2017-12-17T15:41:22.446Z,78.19
2017-12-17T15:43:56.638Z,78.38
2017-12-17T15:46:31.674Z,78.41
2017-12-17T15:49:06.225Z,79.18
2017-12-17T15:51:40.668Z,80.54
2017-12-17T15:54:14.706Z,82.46
2017-12-17T15:56:50.697Z,83.05
2017-12-17T15:59:25.258Z,83.05
2017-12-17T16:01:59.362Z,82.29
2017-12-17T16:04:33.737Z,81.83
2017-12-17T16:07:07.950Z,81.55
2017-12-17T16:09:42.170Z,81.61
2017-12-17T16:12:16.619Z,82.27
2017-12-17T16:14:50.878Z,82.77
2017-12-17T16:17:25.396Z,83.15
2017-12-17T16:19:59.718Z,82.90
2017-12-17T16:22:34.094Z,82.79
2017-12-17T16:25:08.244Z,83.01
2017-12-17T16:27:42.510Z,83.27
2017-12-17T16:30:16.946Z,83.39
2017-12-17T16:32:51.069Z,83.38
2017-12-17T16:35:25.345Z,83.04
2017-12-17T16:37:59.932Z,82.21
2017-12-17T16:40:34.298Z,82.14
2017-12-17T16:43:09.594Z,82.07
2017-12-17T16:45:44.114Z,81.59
2017-12-17T16:48:18.594Z,81.51
2017-12-17T16:50:53.072Z,81.04
2017-12-17T16:53:27.575Z,81.49
2017-12-17T16:56:02.120Z,81.37
2017-12-17T16:58:38.414Z,81.22
2017-12-17T17:01:12.976Z,80.84
2017-12-17T17:03:47.493Z,80.55
2017-12-17T17:06:25.779Z,80.97
2017-12-17T17:09:00.171Z,80.51
2017-12-17T17:11:34.566Z,80.52
2017-12-17T17:14:19.915Z,80.05
2017-12-17T17:16:54.522Z,80.43
2017-12-17T17:19:29.020Z,80.51
2017-12-17T17:22:03.428Z,80.26
2017-12-17T17:24:41.451Z,80.40
2017-12-17T17:27:15.851Z,80.33
2017-12-17T17:29:53.208Z,80.40
2017-12-17T17:32:27.665Z,80.47
2017-12-17T17:35:02.307Z,80.64
2017-12-17T17:37:36.806Z,80.40
2017-12-17T17:40:15.344Z,80.47
2017-12-17T17:42:49.558Z,80.77
2017-12-17T17:45:23.928Z,81.21
2017-12-17T17:47:58.459Z,81.33
2017-12-17T17:50:32.937Z,81.19
2017-12-17T17:53:08.239Z,81.74
2017-12-17T17:55:42.632Z,82.14
2017-12-17T17:58:17.117Z,82.32
2017-12-17T18:00:51.942Z,82.43
2017-12-17T18:03:26.346Z,82.70
2017-12-17T18:06:01.460Z,83.05
2017-12-17T18:08:36.090Z,83.34
2017-12-17T18:11:10.741Z,83.36
2017-12-17T18:13:44.939Z,83.83
2017-12-17T18:16:19.330Z,83.81
2017-12-17T18:18:53.897Z,84.43
2017-12-17T18:21:28.688Z,84.90
2017-12-17T18:24:03.330Z,84.95
2017-12-17T18:26:37.750Z,85.20
2017-12-17T18:29:12.338Z,85.14
2017-12-17T18:31:47.983Z,85.06
2017-12-17T18:34:23.006Z,84.69
2017-12-17T18:36:58.783Z,84.81
2017-12-17T18:39:33.205Z,84.84
2017-12-17T18:42:08.461Z,85.16
2017-12-17T18:44:43.181Z,85.68
2017-12-17T18:47:17.590Z,85.62
2017-12-17T18:49:52.167Z,85.81
2017-12-17T18:52:26.515Z,86.07
2017-12-17T18:55:01.830Z,86.24
2017-12-17T18:57:37.042Z,85.83
2017-12-17T19:00:11.623Z,85.90
2017-12-17T19:02:46.114Z,85.77
2017-12-17T19:05:20.156Z,85.36
2017-12-17T19:07:55.911Z,85.49
2017-12-17T19:10:30.470Z,85.81
2017-12-17T19:13:04.922Z,85.90
2017-12-17T19:15:39.321Z,85.92
2017-12-17T19:18:13.696Z,85.66
2017-12-17T19:20:48.221Z,85.91
2017-12-17T19:23:22.726Z,85.89
2017-12-17T19:25:57.309Z,85.76
2017-12-17T19:28:31.914Z,85.64
2017-12-17T19:31:06.654Z,85.24
2017-12-17T19:33:41.164Z,84.95
2017-12-17T19:36:16.343Z,84.84
2017-12-17T19:38:50.820Z,84.95
2017-12-17T19:41:25.235Z,84.72
2017-12-17T19:43:59.762Z,84.48
2017-12-17T19:46:34.338Z,84.12
2017-12-17T19:49:08.956Z,83.71
2017-12-17T19:51:43.327Z,83.40
2017-12-17T19:54:17.819Z,83.54
2017-12-17T19:56:52.350Z,83.52
2017-12-17T19:59:27.822Z,83.48
2017-12-17T20:02:02.329Z,83.27
2017-12-17T20:04:36.778Z,83.35
2017-12-17T20:07:11.248Z,83.48
2017-12-17T20:09:45.747Z,84.08
2017-12-17T20:12:20.124Z,84.56
2017-12-17T20:14:54.536Z,84.81
2017-12-17T20:17:29.550Z,85.45
2017-12-17T20:22:44.392Z,86.12
2017-12-17T20:25:18.662Z,86.22
2017-12-17T20:27:53.038Z,86.60
2017-12-17T20:30:27.222Z,86.54
2017-12-17T20:33:02.548Z,86.71
2017-12-17T20:35:36.917Z,86.54
2017-12-17T20:38:11.499Z,86.57
2017-12-17T20:40:45.933Z,86.73
2017-12-17T20:43:20.667Z,87.11
2017-12-17T20:45:55.099Z,87.34
2017-12-17T20:48:29.381Z,87.59
2017-12-17T20:51:04.545Z,87.46
2017-12-17T20:53:39.015Z,87.39
2017-12-17T20:56:13.434Z,87.31
2017-12-17T20:58:48.053Z,87.04
2017-12-17T21:01:23.356Z,86.58
2017-12-17T21:03:57.938Z,85.39
2017-12-17T21:06:32.198Z,85.22
2017-12-17T21:09:06.630Z,84.50
2017-12-17T21:11:41.064Z,84.09
2017-12-17T21:14:15.623Z,84.38
2017-12-17T21:16:50.150Z,83.79
2017-12-17T21:19:24.494Z,84.02
2017-12-17T21:21:58.949Z,83.49
2017-12-17T21:24:33.432Z,83.84
2017-12-17T21:27:08.051Z,83.64
2017-12-17T21:29:42.527Z,83.75
2017-12-17T21:32:16.911Z,83.70
2017-12-17T21:34:51.464Z,83.41
2017-12-17T21:37:25.843Z,83.68
2017-12-17T21:40:00.399Z,83.00
2017-12-17T21:42:35.162Z,82.78
2017-12-17T21:45:14.210Z,82.03
2017-12-17T21:47:49.404Z,81.93
2017-12-17T21:50:26.328Z,81.86
2017-12-17T21:53:00.866Z,81.12
2017-12-17T21:55:35.338Z,80.49
2017-12-17T21:58:09.812Z,80.95
2017-12-17T22:00:45.123Z,80.68
2017-12-17T22:03:19.800Z,80.59
2017-12-17T22:05:54.770Z,80.46
2017-12-17T22:08:29.266Z,80.17
2017-12-17T22:11:03.637Z,79.94
2017-12-17T22:13:38.217Z,80.54
2017-12-17T22:16:12.704Z,80.51
2017-12-17T22:18:47.210Z,79.85
2017-12-17T22:21:21.677Z,79.27
2017-12-17T22:23:56.221Z,78.91
2017-12-17T22:26:30.597Z,78.48
2017-12-17T22:29:05.050Z,78.28
2017-12-17T22:31:39.414Z,78.50
2017-12-17T22:34:13.830Z,78.58
2017-12-17T22:36:48.291Z,78.57
2017-12-17T22:39:22.929Z,78.70
2017-12-17T22:41:57.323Z,78.70
2017-12-17T22:44:32.328Z,78.69
2017-12-17T22:47:06.916Z,78.99
2017-12-17T22:49:41.415Z,78.83
2017-12-17T22:52:15.430Z,79.33
2017-12-17T22:54:49.598Z,78.82
2017-12-17T22:57:23.962Z,78.59
2017-12-17T22:59:58.319Z,78.18
2017-12-17T23:02:32.808Z,78.15
2017-12-17T23:05:14.710Z,77.61
2017-12-17T23:07:49.491Z,77.33
2017-12-17T23:10:24.073Z,77.63
2017-12-17T23:12:58.990Z,77.51
2017-12-17T23:15:33.474Z,77.38
2017-12-17T23:18:07.986Z,77.22
2017-12-17T23:20:43.022Z,77.37
2017-12-17T23:23:17.579Z,77.30
2017-12-17T23:25:51.975Z,77.52
2017-12-17T23:28:26.517Z,77.63
2017-12-17T23:31:01.133Z,77.55
2017-12-17T23:33:35.310Z,77.53
2017-12-17T23:36:09.394Z,77.49
2017-12-17T23:38:43.970Z,77.30
2017-12-17T23:41:18.366Z,77.10
2017-12-17T23:43:52.962Z,77.13
2017-12-17T23:46:27.381Z,76.67
2017-12-17T23:49:01.872Z,76.48
2017-12-17T23:51:36.121Z,76.37
2017-12-17T23:54:10.604Z,76.19
2017-12-17T23:56:45.094Z,76.10
2017-12-17T23:59:19.641Z,75.10
